Main page
METAR-TAF:

METAR-TAF

Airports :

Yao Airport

Yao, Japan

latitude: 34-36N, longitude: 135-36E, elevation: 10 m

Current weather observation

The report was made 12 hours and 48 minutes ago, at 10:00 UTC
Wind 10 kt from the West/Northwest
Temperature 10°C
Humidity 50%
Pressure 1022 hPa
Visibility 10 km or more
Few clouds at a height of 2500 ft
Scattered clouds at a height of 5000 ft
Broken clouds at a height of 7000 ft

METAR: RJOY 041000Z 30010KT 9999 FEW025 SCT050 BKN070 10/M00 Q1022

Time: 07:48 (22:48 UTC)


TAF: missing

Weather observations and forecasts of more than 4000 airports (METAR and TAF reports).

The available stations are represented by yellow and red dots on the map.

Hover mouse over dot to see the name of the station.

Then click to see weather observations and forecasts.

To change the map : click on the green buttons with a black cross to zoom in, on the green button with a dash to zoom out, or on the green arrows for adjacent maps.


METAR-TAF: